createdAt,value
2023-10-13T00:02:04.442Z,99.39
2023-10-13T00:04:36.953Z,99.36
2023-10-13T00:07:10.082Z,99.24
2023-10-13T00:09:38.766Z,99.55
2023-10-13T00:12:14.931Z,99.59
2023-10-13T00:14:46.781Z,99.54
2023-10-13T00:17:21.997Z,99.10
2023-10-13T00:19:53.954Z,98.84
2023-10-13T00:22:24.353Z,98.76
2023-10-13T00:24:59.660Z,98.84
2023-10-13T00:27:27.819Z,99.10
2023-10-13T00:30:20.242Z,98.88
2023-10-13T00:32:57.563Z,98.76
2023-10-13T00:35:30.791Z,98.72
2023-10-13T00:38:13.875Z,98.89
2023-10-13T00:40:45.635Z,98.68
2023-10-13T00:43:19.713Z,98.84
2023-10-13T00:46:06.292Z,98.87
2023-10-13T00:48:55.772Z,98.95
2023-10-13T00:51:36.229Z,99.10
2023-10-13T00:54:12.497Z,99.08
2023-10-13T00:56:50.058Z,99.20
2023-10-13T00:59:19.195Z,99.36
2023-10-13T01:01:51.142Z,99.20
2023-10-13T01:04:20.662Z,99.02
2023-10-13T01:06:48.804Z,98.65
2023-10-13T01:09:20.395Z,98.43
2023-10-13T01:11:54.343Z,98.55
2023-10-13T01:14:32.771Z,98.73
2023-10-13T01:17:02.759Z,98.08
2023-10-13T01:19:40.039Z,98.33
2023-10-13T01:22:08.285Z,98.24
2023-10-13T01:24:36.536Z,98.12
2023-10-13T01:27:19.010Z,98.68
2023-10-13T01:29:49.772Z,98.64
2023-10-13T01:32:20.094Z,98.85
2023-10-13T01:34:50.721Z,98.75
2023-10-13T01:37:20.707Z,98.71
2023-10-13T01:39:50.543Z,98.60
2023-10-13T01:42:23.607Z,97.99
2023-10-13T01:44:52.249Z,97.87
2023-10-13T01:47:22.122Z,97.57
2023-10-13T01:49:51.797Z,97.98
2023-10-13T01:52:20.638Z,97.75
2023-10-13T01:54:51.262Z,97.52
2023-10-13T01:57:19.773Z,97.03
2023-10-13T01:59:50.237Z,97.29
2023-10-13T02:02:30.788Z,97.35
2023-10-13T02:05:02.260Z,97.40
2023-10-13T02:07:36.122Z,96.79
2023-10-13T02:10:07.596Z,96.64
2023-10-13T02:12:44.216Z,96.64
2023-10-13T02:15:23.360Z,97.05
2023-10-13T02:17:56.801Z,97.14
2023-10-13T02:20:31.734Z,96.94
2023-10-13T02:23:01.537Z,97.13
2023-10-13T02:25:45.238Z,96.97
2023-10-13T02:28:22.541Z,96.99
2023-10-13T02:30:51.825Z,97.33
2023-10-13T02:33:23.389Z,97.71
2023-10-13T02:35:54.537Z,97.39
2023-10-13T02:38:35.944Z,97.88
2023-10-13T02:41:07.205Z,97.93
2023-10-13T02:43:36.345Z,97.66
2023-10-13T02:46:05.839Z,97.13
2023-10-13T02:48:45.040Z,97.29
2023-10-13T02:51:19.628Z,97.23
2023-10-13T02:53:51.756Z,97.36
2023-10-13T02:56:24.215Z,97.46
2023-10-13T02:58:54.764Z,97.20
2023-10-13T03:01:28.621Z,97.40
2023-10-13T03:03:59.799Z,97.33
2023-10-13T03:06:35.061Z,97.03
2023-10-13T03:09:20.773Z,97.41
2023-10-13T03:11:50.354Z,97.11
2023-10-13T03:14:29.763Z,97.14
2023-10-13T03:17:10.655Z,97.24
2023-10-13T03:19:39.783Z,97.10
2023-10-13T03:22:17.245Z,97.19
2023-10-13T03:24:49.032Z,97.62
2023-10-13T03:27:23.410Z,97.60
2023-10-13T03:30:01.941Z,97.53
2023-10-13T03:32:31.838Z,97.58
2023-10-13T03:35:02.815Z,97.65
2023-10-13T03:37:36.865Z,97.79
2023-10-13T03:40:21.652Z,98.10
2023-10-13T03:43:26.985Z,98.33
2023-10-13T03:46:02.451Z,97.72
2023-10-13T03:48:31.045Z,97.79
2023-10-13T03:51:10.193Z,97.91
2023-10-13T03:53:55.654Z,97.78
2023-10-13T03:56:33.026Z,97.58
2023-10-13T03:59:07.448Z,97.45
2023-10-13T04:01:55.828Z,97.75
2023-10-13T04:04:44.786Z,97.54
2023-10-13T04:07:12.875Z,97.60
2023-10-13T04:09:41.289Z,97.78
2023-10-13T04:12:12.740Z,97.58
2023-10-13T04:15:04.382Z,97.74
2023-10-13T04:17:41.869Z,97.68
2023-10-13T04:20:10.255Z,97.63
2023-10-13T04:22:51.098Z,97.71
2023-10-13T04:25:37.124Z,97.92
2023-10-13T04:28:17.775Z,97.96
2023-10-13T04:30:57.379Z,97.94
2023-10-13T04:33:33.264Z,98.30
2023-10-13T04:36:26.974Z,98.15
2023-10-13T04:38:58.542Z,98.22
2023-10-13T04:41:58.112Z,98.65
2023-10-13T04:44:45.300Z,98.60
2023-10-13T04:47:22.554Z,98.65
2023-10-13T04:49:51.340Z,98.91
2023-10-13T04:52:39.081Z,99.12
2023-10-13T04:55:44.713Z,99.04
2023-10-13T04:58:16.271Z,99.18
2023-10-13T05:00:56.682Z,99.28
2023-10-13T05:03:47.838Z,99.38
2023-10-13T05:06:35.862Z,99.29
2023-10-13T05:09:22.828Z,99.42
2023-10-13T05:12:09.589Z,99.50
2023-10-13T05:14:58.573Z,99.51
2023-10-13T05:17:45.425Z,99.60
2023-10-13T05:20:31.847Z,99.80
2023-10-13T05:23:18.384Z,99.63
2023-10-13T05:26:04.969Z,99.69
2023-10-13T05:28:51.821Z,99.63
2023-10-13T05:31:38.789Z,99.91
2023-10-13T05:34:26.087Z,99.91
2023-10-13T05:37:12.536Z,99.63
2023-10-13T05:39:59.114Z,100.00
2023-10-13T05:42:45.841Z,99.94
2023-10-13T05:45:39.937Z,100.00
2023-10-13T05:48:15.529Z,100.00
2023-10-13T05:51:03.188Z,100.00
2023-10-13T05:53:50.044Z,100.00
2023-10-13T05:56:37.033Z,100.00
2023-10-13T05:59:23.884Z,100.00
2023-10-13T06:02:10.645Z,100.00
2023-10-13T06:04:57.321Z,100.00
2023-10-13T06:07:44.195Z,100.00
2023-10-13T06:10:38.446Z,100.00
2023-10-13T06:13:25.068Z,100.00
2023-10-13T06:16:12.174Z,100.00
2023-10-13T06:18:58.710Z,100.00
2023-10-13T06:21:45.453Z,100.00
2023-10-13T06:24:32.453Z,100.00
2023-10-13T06:27:19.279Z,100.00
2023-10-13T06:29:47.524Z,100.00
2023-10-13T06:32:17.551Z,100.00
2023-10-13T06:34:49.022Z,100.00
2023-10-13T06:37:24.219Z,100.00
2023-10-13T06:39:57.589Z,100.00
2023-10-13T06:42:28.509Z,100.00
2023-10-13T06:44:57.568Z,100.00
2023-10-13T06:47:26.088Z,100.00
2023-10-13T06:49:56.049Z,100.00
2023-10-13T06:52:24.495Z,100.00
2023-10-13T06:54:54.586Z,100.00
2023-10-13T06:57:22.735Z,100.00
2023-10-13T06:59:50.827Z,100.00
2023-10-13T07:02:28.498Z,100.00
2023-10-13T07:05:09.184Z,100.00
2023-10-13T07:07:40.143Z,100.00
2023-10-13T07:10:15.611Z,100.00
2023-10-13T07:12:46.810Z,100.00
2023-10-13T07:15:17.698Z,100.00
2023-10-13T07:17:56.155Z,100.00
2023-10-13T07:20:30.084Z,100.00
2023-10-13T07:23:08.126Z,100.00
2023-10-13T07:25:41.992Z,100.00
2023-10-13T07:28:10.655Z,100.00
2023-10-13T07:30:54.889Z,100.00
2023-10-13T07:33:23.274Z,100.00
2023-10-13T07:36:16.931Z,100.00
2023-10-13T07:39:19.480Z,100.00
2023-10-13T07:41:56.492Z,100.00
2023-10-13T07:44:30.154Z,100.00
2023-10-13T07:47:01.339Z,100.00
2023-10-13T07:49:32.228Z,100.00
2023-10-13T07:52:16.331Z,100.00
2023-10-13T07:54:48.820Z,100.00
2023-10-13T07:57:18.473Z,100.00
2023-10-13T07:59:53.722Z,100.00
2023-10-13T08:02:40.774Z,100.00
2023-10-13T08:05:16.213Z,100.00
2023-10-13T08:07:44.339Z,100.00
2023-10-13T08:10:17.165Z,100.00
2023-10-13T08:12:45.427Z,100.00
2023-10-13T08:15:22.812Z,100.00
2023-10-13T08:17:53.769Z,100.00
2023-10-13T08:20:23.311Z,100.00
2023-10-13T08:22:51.606Z,100.00
2023-10-13T08:25:26.204Z,100.00
2023-10-13T08:28:14.796Z,100.00
2023-10-13T08:30:54.120Z,100.00
2023-10-13T08:33:29.098Z,100.00
2023-10-13T08:36:17.605Z,99.85
2023-10-13T08:38:56.743Z,99.90
2023-10-13T08:41:25.046Z,99.72
2023-10-13T08:43:54.555Z,99.40
2023-10-13T08:46:26.637Z,99.48
2023-10-13T08:49:16.711Z,99.26
2023-10-13T08:51:46.173Z,98.98
2023-10-13T08:54:35.532Z,98.91
2023-10-13T08:57:21.603Z,99.08
2023-10-13T08:59:56.587Z,98.76
2023-10-13T09:02:44.576Z,98.93
2023-10-13T09:05:31.911Z,98.75
2023-10-13T09:08:10.922Z,98.62
2023-10-13T09:11:07.073Z,98.49
2023-10-13T09:13:45.708Z,98.48
2023-10-13T09:16:40.969Z,98.36
2023-10-13T09:19:13.142Z,98.46
2023-10-13T09:21:42.898Z,98.25
2023-10-13T09:24:24.789Z,98.14
2023-10-13T09:26:57.469Z,98.08
2023-10-13T09:29:26.466Z,97.81
2023-10-13T09:32:10.886Z,97.97
2023-10-13T09:34:54.219Z,97.58
2023-10-13T09:37:26.725Z,97.01
2023-10-13T09:40:06.059Z,97.20
2023-10-13T09:42:35.527Z,97.16
2023-10-13T09:45:05.890Z,97.06
2023-10-13T09:47:39.050Z,96.43
2023-10-13T09:50:25.587Z,95.99
2023-10-13T09:52:55.850Z,95.93
2023-10-13T09:55:40.733Z,95.99
2023-10-13T09:58:21.223Z,95.46
2023-10-13T10:01:11.799Z,94.74
2023-10-13T10:03:52.910Z,94.15
2023-10-13T10:06:32.446Z,93.84
2023-10-13T10:09:13.802Z,94.02
2023-10-13T10:11:55.774Z,93.77
2023-10-13T10:14:43.659Z,93.70
2023-10-13T10:17:12.123Z,93.43
2023-10-13T10:19:48.660Z,93.30
2023-10-13T10:22:34.543Z,92.64
2023-10-13T10:25:03.972Z,92.75
2023-10-13T10:27:34.025Z,92.53
2023-10-13T10:30:05.342Z,91.54
2023-10-13T10:32:36.948Z,90.55
2023-10-13T10:35:16.680Z,91.05
2023-10-13T10:37:49.850Z,90.73
2023-10-13T10:40:37.651Z,90.73
2023-10-13T10:43:25.651Z,89.76
2023-10-13T10:46:03.822Z,89.22
2023-10-13T10:48:38.416Z,88.63
2023-10-13T10:51:15.585Z,88.03
2023-10-13T10:53:47.838Z,88.33
2023-10-13T10:56:35.713Z,88.32
2023-10-13T10:59:10.487Z,88.18
2023-10-13T11:01:48.793Z,87.93
2023-10-13T11:04:20.835Z,88.24
2023-10-13T11:06:56.153Z,87.78
2023-10-13T11:09:28.515Z,87.58
2023-10-13T11:11:58.564Z,87.67
2023-10-13T11:14:28.834Z,87.39
2023-10-13T11:17:01.828Z,87.38
2023-10-13T11:19:38.452Z,86.94
2023-10-13T11:22:36.213Z,85.87
2023-10-13T11:25:13.169Z,86.46
2023-10-13T11:27:52.479Z,86.61
2023-10-13T11:30:21.901Z,85.97
2023-10-13T11:33:07.695Z,85.62
2023-10-13T11:35:55.055Z,85.18
2023-10-13T11:38:41.606Z,85.14
2023-10-13T11:41:13.515Z,85.05
2023-10-13T11:43:52.229Z,84.78
2023-10-13T11:46:38.771Z,84.75
2023-10-13T11:49:15.381Z,85.36
2023-10-13T11:51:50.629Z,85.24
2023-10-13T11:54:21.058Z,85.44
2023-10-13T11:56:50.321Z,85.44
2023-10-13T11:59:18.981Z,85.24
2023-10-13T12:02:11.038Z,85.34
2023-10-13T12:05:00.397Z,85.32
2023-10-13T12:07:41.364Z,85.07
2023-10-13T12:10:16.811Z,84.97
2023-10-13T12:12:47.835Z,84.98
2023-10-13T12:15:27.309Z,84.33
2023-10-13T12:17:59.518Z,84.90
2023-10-13T12:20:34.164Z,84.94
2023-10-13T12:23:17.000Z,84.80
2023-10-13T12:25:55.994Z,84.86
2023-10-13T12:28:28.383Z,84.30
2023-10-13T12:30:59.038Z,84.57
2023-10-13T12:33:28.499Z,84.67
2023-10-13T12:36:23.802Z,84.08
2023-10-13T12:39:02.989Z,83.85
2023-10-13T12:41:49.795Z,83.89
2023-10-13T12:44:36.741Z,83.85
2023-10-13T12:47:23.581Z,83.87
2023-10-13T12:49:59.552Z,84.19
2023-10-13T12:52:28.062Z,83.89
2023-10-13T12:54:59.187Z,83.75
2023-10-13T12:57:29.009Z,83.53
2023-10-13T12:59:57.220Z,83.68
2023-10-13T13:02:27.515Z,83.61
2023-10-13T13:05:07.775Z,83.50
2023-10-13T13:07:44.823Z,83.47
2023-10-13T13:10:15.090Z,83.55
2023-10-13T13:12:43.482Z,83.45
2023-10-13T13:15:13.569Z,83.42
2023-10-13T13:17:42.436Z,83.66
2023-10-13T13:20:32.022Z,83.50
2023-10-13T13:23:04.232Z,83.48
2023-10-13T13:25:34.079Z,83.49
2023-10-13T13:28:06.783Z,83.78
2023-10-13T13:30:36.615Z,83.93
2023-10-13T13:33:12.480Z,84.10
2023-10-13T13:35:43.669Z,84.14
2023-10-13T13:38:15.059Z,84.24
2023-10-13T13:40:45.802Z,84.32
2023-10-13T13:43:32.794Z,84.31
2023-10-13T13:46:04.752Z,84.25
2023-10-13T13:48:35.565Z,84.24
2023-10-13T13:51:07.769Z,84.56
2023-10-13T13:53:39.358Z,84.43
2023-10-13T13:56:07.552Z,84.22
2023-10-13T13:58:35.816Z,84.17
2023-10-13T14:01:13.894Z,84.10
2023-10-13T14:03:47.124Z,84.19
2023-10-13T14:06:22.623Z,84.17
2023-10-13T14:08:52.536Z,83.92
2023-10-13T14:11:24.090Z,84.12
2023-10-13T14:13:57.248Z,83.93
2023-10-13T14:16:25.810Z,84.16
2023-10-13T14:18:54.343Z,84.11
2023-10-13T14:21:25.806Z,84.16
2023-10-13T14:23:56.960Z,84.21
2023-10-13T14:26:27.758Z,84.19
2023-10-13T14:29:04.990Z,84.50
2023-10-13T14:31:33.930Z,84.47
2023-10-13T14:34:02.169Z,84.56
2023-10-13T14:36:33.223Z,84.62
2023-10-13T14:39:03.876Z,84.62
2023-10-13T14:41:32.788Z,84.42
2023-10-13T14:44:06.752Z,84.69
2023-10-13T14:46:40.725Z,84.68
2023-10-13T14:49:09.585Z,84.56
2023-10-13T14:51:57.249Z,84.59
2023-10-13T14:54:34.569Z,84.64
2023-10-13T14:57:03.792Z,84.64
2023-10-13T14:59:40.048Z,84.75
2023-10-13T15:02:08.713Z,84.97
2023-10-13T15:04:37.100Z,84.98
2023-10-13T15:07:08.262Z,84.94
2023-10-13T15:09:36.806Z,84.90
2023-10-13T15:12:06.898Z,85.04
2023-10-13T15:14:36.138Z,85.00
2023-10-13T15:17:07.507Z,85.23
2023-10-13T15:19:40.254Z,85.24
2023-10-13T15:22:08.581Z,85.21
2023-10-13T15:24:44.317Z,85.31
2023-10-13T15:27:13.402Z,85.52
2023-10-13T15:29:52.168Z,85.42
2023-10-13T15:32:39.199Z,85.51
2023-10-13T15:35:14.023Z,85.62
2023-10-13T15:37:48.498Z,85.65
2023-10-13T15:40:17.245Z,85.80
2023-10-13T15:42:49.010Z,85.76
2023-10-13T15:45:20.323Z,85.87
2023-10-13T15:50:22.772Z,86.17
2023-10-13T15:52:52.119Z,86.46
2023-10-13T15:55:20.402Z,86.45
2023-10-13T15:57:54.669Z,86.63
2023-10-13T16:00:27.197Z,86.89
2023-10-13T16:02:59.206Z,87.00
2023-10-13T16:05:35.978Z,86.76
2023-10-13T16:08:07.989Z,87.15
2023-10-13T16:10:40.862Z,87.24
2023-10-13T16:13:17.923Z,87.18
2023-10-13T16:15:49.221Z,87.42
2023-10-13T16:18:23.720Z,87.57
2023-10-13T16:20:52.512Z,87.83
2023-10-13T16:23:20.910Z,87.85
2023-10-13T16:25:50.693Z,88.04
2023-10-13T16:28:19.196Z,88.06
2023-10-13T16:30:47.710Z,88.53
2023-10-13T16:33:20.582Z,88.47
2023-10-13T16:35:51.223Z,88.79
2023-10-13T16:38:26.057Z,88.78
2023-10-13T16:40:54.796Z,88.73
2023-10-13T16:43:23.125Z,89.12
2023-10-13T16:45:52.636Z,88.91
2023-10-13T16:48:23.217Z,89.07
2023-10-13T16:50:51.506Z,89.32
2023-10-13T16:53:19.709Z,89.09
2023-10-13T16:55:50.704Z,89.36
2023-10-13T16:58:20.909Z,89.29
2023-10-13T17:00:53.303Z,89.32
2023-10-13T17:03:30.902Z,89.30
2023-10-13T17:06:03.208Z,89.39
2023-10-13T17:08:33.007Z,89.76
2023-10-13T17:11:20.542Z,89.81
2023-10-13T17:13:55.464Z,89.82
2023-10-13T17:16:27.961Z,89.94
2023-10-13T17:19:00.463Z,90.22
2023-10-13T17:21:35.181Z,90.26
2023-10-13T17:24:03.770Z,90.22
2023-10-13T17:26:41.612Z,90.21
2023-10-13T17:29:37.156Z,90.27
2023-10-13T17:32:12.162Z,90.39
2023-10-13T17:35:07.813Z,90.38
2023-10-13T17:37:49.046Z,90.63
2023-10-13T17:40:21.123Z,90.52
2023-10-13T17:43:00.288Z,90.81
2023-10-13T17:45:42.201Z,90.76
2023-10-13T17:48:10.836Z,90.91
2023-10-13T17:50:42.920Z,91.02
2023-10-13T17:53:13.687Z,91.16
2023-10-13T17:55:44.128Z,91.27
2023-10-13T17:58:12.400Z,91.31
2023-10-13T18:00:49.193Z,91.42
2023-10-13T18:03:24.811Z,91.54
2023-10-13T18:06:04.400Z,91.59
2023-10-13T18:08:34.422Z,91.59
2023-10-13T18:11:06.801Z,91.73
2023-10-13T18:13:42.557Z,91.75
2023-10-13T18:16:21.216Z,91.85
2023-10-13T18:19:13.833Z,91.94
2023-10-13T18:21:50.099Z,91.96
2023-10-13T18:24:30.683Z,91.85
2023-10-13T18:27:04.955Z,91.75
2023-10-13T18:29:46.481Z,91.91
2023-10-13T18:32:20.225Z,91.89
2023-10-13T18:34:51.286Z,91.95
2023-10-13T18:37:30.468Z,91.98
2023-10-13T18:43:03.322Z,91.96
2023-10-13T18:45:35.357Z,91.93
2023-10-13T18:48:05.455Z,91.89
2023-10-13T18:50:57.105Z,91.89
2023-10-13T18:53:37.221Z,91.84
2023-10-13T18:56:15.808Z,91.85
2023-10-13T18:58:55.254Z,91.69
2023-10-13T19:01:44.911Z,91.84
2023-10-13T19:04:15.790Z,91.79
2023-10-13T19:07:09.358Z,91.78
2023-10-13T19:09:45.660Z,91.83
2023-10-13T19:12:16.139Z,91.73
2023-10-13T19:14:58.975Z,91.72
2023-10-13T19:17:32.941Z,91.86
2023-10-13T19:20:28.359Z,91.79
2023-10-13T19:23:39.421Z,91.79
2023-10-13T19:26:33.299Z,91.86
2023-10-13T19:29:10.305Z,91.94
2023-10-13T19:31:45.423Z,91.92
2023-10-13T19:34:40.818Z,91.92
2023-10-13T19:37:19.893Z,91.82
2023-10-13T19:39:52.821Z,91.81
2023-10-13T19:42:24.057Z,91.87
2023-10-13T19:45:08.372Z,91.83
2023-10-13T19:47:47.786Z,91.69
2023-10-13T19:50:26.839Z,91.74
2023-10-13T19:53:02.738Z,91.72
2023-10-13T19:55:47.828Z,91.58
2023-10-13T19:58:30.967Z,91.51
2023-10-13T20:01:14.469Z,91.57
2023-10-13T20:03:49.941Z,91.40
2023-10-13T20:06:34.989Z,91.42
2023-10-13T20:09:26.055Z,91.44
2023-10-13T20:11:58.449Z,91.36
2023-10-13T20:14:36.924Z,91.16
2023-10-13T20:17:22.080Z,91.00
2023-10-13T20:19:50.408Z,90.98
2023-10-13T20:22:23.103Z,90.77
2023-10-13T20:25:01.730Z,90.67
2023-10-13T20:27:36.701Z,90.55
2023-10-13T20:30:18.791Z,90.49
2023-10-13T20:32:50.791Z,90.50
2023-10-13T20:35:30.427Z,90.38
2023-10-13T20:38:07.640Z,90.31
2023-10-13T20:40:44.110Z,90.16
2023-10-13T20:43:25.384Z,89.98
2023-10-13T20:46:15.101Z,89.94
2023-10-13T20:48:51.164Z,89.84
2023-10-13T20:51:20.204Z,89.76
2023-10-13T20:53:48.635Z,89.47
2023-10-13T20:56:24.018Z,89.56
2023-10-13T20:58:59.008Z,89.22
2023-10-13T21:01:39.049Z,89.01
2023-10-13T21:04:11.130Z,88.94
2023-10-13T21:06:53.758Z,89.10
2023-10-13T21:09:29.528Z,88.68
2023-10-13T21:12:06.965Z,88.69
2023-10-13T21:14:35.741Z,88.90
2023-10-13T21:17:09.170Z,88.67
2023-10-13T21:19:40.864Z,88.63
2023-10-13T21:22:12.998Z,88.70
2023-10-13T21:24:41.312Z,88.49
2023-10-13T21:27:10.400Z,88.37
2023-10-13T21:29:39.055Z,88.30
2023-10-13T21:32:09.133Z,88.33
2023-10-13T21:34:37.372Z,87.75
2023-10-13T21:37:05.631Z,87.84
2023-10-13T21:39:47.460Z,87.69
2023-10-13T21:42:22.351Z,87.70
2023-10-13T21:44:56.778Z,87.88
2023-10-13T21:47:25.697Z,87.97
2023-10-13T21:49:53.816Z,87.83
2023-10-13T21:52:22.874Z,87.68
2023-10-13T21:54:50.949Z,87.56
2023-10-13T21:57:19.018Z,87.70
2023-10-13T21:59:47.189Z,87.32
2023-10-13T22:02:15.766Z,87.25
2023-10-13T22:04:44.087Z,87.42
2023-10-13T22:07:13.640Z,87.10
2023-10-13T22:09:44.178Z,87.30
2023-10-13T22:12:12.630Z,87.30
2023-10-13T22:14:40.726Z,87.35
2023-10-13T22:17:08.908Z,87.19
2023-10-13T22:19:39.660Z,87.25
2023-10-13T22:22:09.406Z,87.27
2023-10-13T22:24:37.722Z,87.25
2023-10-13T22:27:07.562Z,87.08
2023-10-13T22:29:35.625Z,87.12
2023-10-13T22:32:03.952Z,87.23
2023-10-13T22:34:32.231Z,87.19
2023-10-13T22:37:06.083Z,87.04
2023-10-13T22:39:34.866Z,86.84
2023-10-13T22:42:03.535Z,86.91
2023-10-13T22:44:34.575Z,86.91
2023-10-13T22:47:06.395Z,86.44
2023-10-13T22:49:35.043Z,86.17
2023-10-13T22:52:04.517Z,86.18
2023-10-13T22:54:38.307Z,86.30
2023-10-13T22:57:06.609Z,86.15
2023-10-13T22:59:35.070Z,86.04
2023-10-13T23:02:03.305Z,85.25
2023-10-13T23:04:34.279Z,85.39
2023-10-13T23:07:12.136Z,85.38
2023-10-13T23:09:48.766Z,85.45
2023-10-13T23:12:17.285Z,84.06
2023-10-13T23:14:51.622Z,84.13
2023-10-13T23:17:22.048Z,84.03
2023-10-13T23:19:50.830Z,83.21
2023-10-13T23:22:19.112Z,83.13
2023-10-13T23:24:47.198Z,83.44
2023-10-13T23:27:15.292Z,83.63
2023-10-13T23:29:43.842Z,83.17
2023-10-13T23:32:13.298Z,82.99
2023-10-13T23:34:41.644Z,83.11
2023-10-13T23:37:12.529Z,82.92
2023-10-13T23:39:40.943Z,82.90
2023-10-13T23:42:09.200Z,82.47
2023-10-13T23:44:37.262Z,82.64
2023-10-13T23:47:05.600Z,82.53
2023-10-13T23:49:33.990Z,82.32
2023-10-13T23:52:06.446Z,82.59
2023-10-13T23:54:40.832Z,82.40
2023-10-13T23:57:13.564Z,82.43
2023-10-13T23:59:42.078Z,82.34
